sensor_id;sensor_type;location;lat;lon;timestamp;P1;durP1;ratioP1;P2;durP2;ratioP2
4616;SDS011;2321;42.704;23.384;2023-07-29T00:01:12;197.80;;;47.63;;
4616;SDS011;2321;42.704;23.384;2023-07-29T00:03:39;203.90;;;47.67;;
4616;SDS011;2321;42.704;23.384;2023-07-29T00:06:09;165.33;;;43.70;;
4616;SDS011;2321;42.704;23.384;2023-07-29T00:08:35;154.70;;;40.60;;
4616;SDS011;2321;42.704;23.384;2023-07-29T00:11:02;169.57;;;44.07;;
4616;SDS011;2321;42.704;23.384;2023-07-29T00:13:29;167.33;;;44.17;;
4616;SDS011;2321;42.704;23.384;2023-07-29T00:15:56;182.33;;;45.10;;
4616;SDS011;2321;42.704;23.384;2023-07-29T00:18:23;179.20;;;45.43;;
4616;SDS011;2321;42.704;23.384;2023-07-29T00:20:50;205.73;;;47.60;;
4616;SDS011;2321;42.704;23.384;2023-07-29T00:23:18;195.53;;;46.67;;
4616;SDS011;2321;42.704;23.384;2023-07-29T00:25:46;174.57;;;42.80;;
4616;SDS011;2321;42.704;23.384;2023-07-29T00:28:13;178.33;;;42.77;;
4616;SDS011;2321;42.704;23.384;2023-07-29T00:30:40;188.60;;;45.77;;
4616;SDS011;2321;42.704;23.384;2023-07-29T00:33:07;101.57;;;20.83;;
4616;SDS011;2321;42.704;23.384;2023-07-29T00:35:34;221.40;;;45.87;;
4616;SDS011;2321;42.704;23.384;2023-07-29T00:38:01;218.17;;;45.53;;
4616;SDS011;2321;42.704;23.384;2023-07-29T00:40:29;208.90;;;47.43;;
4616;SDS011;2321;42.704;23.384;2023-07-29T00:43:01;184.83;;;45.20;;
4616;SDS011;2321;42.704;23.384;2023-07-29T00:45:28;174.90;;;44.03;;
4616;SDS011;2321;42.704;23.384;2023-07-29T00:47:55;169.37;;;42.03;;
4616;SDS011;2321;42.704;23.384;2023-07-29T00:50:22;153.70;;;42.17;;
4616;SDS011;2321;42.704;23.384;2023-07-29T00:52:49;166.27;;;43.03;;
4616;SDS011;2321;42.704;23.384;2023-07-29T00:55:17;173.00;;;44.43;;
4616;SDS011;2321;42.704;23.384;2023-07-29T00:57:45;167.97;;;44.03;;
4616;SDS011;2321;42.704;23.384;2023-07-29T01:00:13;161.90;;;42.43;;
4616;SDS011;2321;42.704;23.384;2023-07-29T01:02:41;140.57;;;40.07;;
4616;SDS011;2321;42.704;23.384;2023-07-29T01:05:09;155.60;;;42.27;;
4616;SDS011;2321;42.704;23.384;2023-07-29T01:07:42;154.37;;;47.83;;
4616;SDS011;2321;42.704;23.384;2023-07-29T01:10:17;155.47;;;48.70;;
4616;SDS011;2321;42.704;23.384;2023-07-29T01:12:56;158.63;;;49.27;;
4616;SDS011;2321;42.704;23.384;2023-07-29T01:15:32;138.60;;;46.33;;
4616;SDS011;2321;42.704;23.384;2023-07-29T01:18:06;147.20;;;48.73;;
4616;SDS011;2321;42.704;23.384;2023-07-29T01:20:37;142.67;;;46.97;;
4616;SDS011;2321;42.704;23.384;2023-07-29T01:23:07;155.50;;;49.77;;
4616;SDS011;2321;42.704;23.384;2023-07-29T01:25:35;148.03;;;47.90;;
4616;SDS011;2321;42.704;23.384;2023-07-29T01:28:02;157.33;;;50.13;;
4616;SDS011;2321;42.704;23.384;2023-07-29T01:30:30;134.97;;;46.23;;
4616;SDS011;2321;42.704;23.384;2023-07-29T01:33:04;127.53;;;44.77;;
4616;SDS011;2321;42.704;23.384;2023-07-29T01:35:39;135.07;;;45.97;;
4616;SDS011;2321;42.704;23.384;2023-07-29T01:38:12;135.73;;;45.43;;
4616;SDS011;2321;42.704;23.384;2023-07-29T01:40:42;137.27;;;46.13;;
4616;SDS011;2321;42.704;23.384;2023-07-29T01:43:10;141.30;;;47.00;;
4616;SDS011;2321;42.704;23.384;2023-07-29T01:45:37;138.40;;;46.13;;
4616;SDS011;2321;42.704;23.384;2023-07-29T01:48:05;140.43;;;45.67;;
4616;SDS011;2321;42.704;23.384;2023-07-29T01:50:32;192.97;;;53.43;;
4616;SDS011;2321;42.704;23.384;2023-07-29T01:52:59;145.83;;;47.03;;
4616;SDS011;2321;42.704;23.384;2023-07-29T01:55:26;141.07;;;46.63;;
4616;SDS011;2321;42.704;23.384;2023-07-29T01:57:55;142.17;;;46.67;;
4616;SDS011;2321;42.704;23.384;2023-07-29T02:00:21;145.53;;;47.20;;
4616;SDS011;2321;42.704;23.384;2023-07-29T02:02:48;155.13;;;47.63;;
4616;SDS011;2321;42.704;23.384;2023-07-29T02:05:15;164.73;;;42.97;;
4616;SDS011;2321;42.704;23.384;2023-07-29T02:07:42;74.00;;;35.77;;
4616;SDS011;2321;42.704;23.384;2023-07-29T02:10:09;77.40;;;16.90;;
4616;SDS011;2321;42.704;23.384;2023-07-29T02:12:36;209.67;;;47.80;;
4616;SDS011;2321;42.704;23.384;2023-07-29T02:15:04;205.03;;;48.43;;
4616;SDS011;2321;42.704;23.384;2023-07-29T02:17:32;196.33;;;47.33;;
4616;SDS011;2321;42.704;23.384;2023-07-29T02:19:59;192.40;;;46.83;;
4616;SDS011;2321;42.704;23.384;2023-07-29T02:22:26;189.27;;;46.67;;
4616;SDS011;2321;42.704;23.384;2023-07-29T02:24:53;184.50;;;45.83;;
4616;SDS011;2321;42.704;23.384;2023-07-29T02:27:19;176.07;;;45.53;;
4616;SDS011;2321;42.704;23.384;2023-07-29T02:29:46;174.00;;;45.20;;
4616;SDS011;2321;42.704;23.384;2023-07-29T02:32:15;172.33;;;44.83;;
4616;SDS011;2321;42.704;23.384;2023-07-29T02:34:41;170.80;;;44.73;;
4616;SDS011;2321;42.704;23.384;2023-07-29T02:37:08;174.33;;;44.83;;
4616;SDS011;2321;42.704;23.384;2023-07-29T02:39:35;195.70;;;47.23;;
4616;SDS011;2321;42.704;23.384;2023-07-29T02:42:02;203.53;;;48.17;;
4616;SDS011;2321;42.704;23.384;2023-07-29T02:44:30;173.10;;;44.80;;
4616;SDS011;2321;42.704;23.384;2023-07-29T02:46:57;178.53;;;45.73;;
4616;SDS011;2321;42.704;23.384;2023-07-29T02:49:25;154.10;;;41.57;;
4616;SDS011;2321;42.704;23.384;2023-07-29T02:51:52;17.60;;;15.83;;
4616;SDS011;2321;42.704;23.384;2023-07-29T02:54:19;11.53;;;10.43;;
4616;SDS011;2321;42.704;23.384;2023-07-29T02:56:45;18.70;;;17.20;;
4616;SDS011;2321;42.704;23.384;2023-07-29T02:59:12;70.07;;;15.33;;
4616;SDS011;2321;42.704;23.384;2023-07-29T03:01:39;243.83;;;49.40;;
4616;SDS011;2321;42.704;23.384;2023-07-29T03:04:06;223.70;;;46.57;;
4616;SDS011;2321;42.704;23.384;2023-07-29T03:06:34;222.90;;;43.33;;
4616;SDS011;2321;42.704;23.384;2023-07-29T03:09:01;78.00;;;16.43;;
4616;SDS011;2321;42.704;23.384;2023-07-29T03:11:28;236.33;;;49.70;;
4616;SDS011;2321;42.704;23.384;2023-07-29T03:13:56;46.47;;;42.10;;
4616;SDS011;2321;42.704;23.384;2023-07-29T03:16:23;89.63;;;19.13;;
4616;SDS011;2321;42.704;23.384;2023-07-29T03:18:50;43.17;;;18.97;;
4616;SDS011;2321;42.704;23.384;2023-07-29T03:21:16;48.70;;;42.50;;
4616;SDS011;2321;42.704;23.384;2023-07-29T03:23:45;516.07;;;164.83;;
4616;SDS011;2321;42.704;23.384;2023-07-29T03:26:11;1071.17;;;529.97;;
4616;SDS011;2321;42.704;23.384;2023-07-29T03:28:39;188.43;;;57.37;;
4616;SDS011;2321;42.704;23.384;2023-07-29T03:31:07;184.60;;;56.47;;
4616;SDS011;2321;42.704;23.384;2023-07-29T03:33:35;4.70;;;4.13;;
4616;SDS011;2321;42.704;23.384;2023-07-29T03:36:02;21.67;;;6.43;;
4616;SDS011;2321;42.704;23.384;2023-07-29T03:38:29;59.97;;;13.60;;
4616;SDS011;2321;42.704;23.384;2023-07-29T03:40:59;58.00;;;12.93;;
4616;SDS011;2321;42.704;23.384;2023-07-29T03:43:27;12.30;;;5.20;;
4616;SDS011;2321;42.704;23.384;2023-07-29T03:45:54;44.47;;;10.70;;
4616;SDS011;2321;42.704;23.384;2023-07-29T03:48:21;21.57;;;6.80;;
4616;SDS011;2321;42.704;23.384;2023-07-29T03:50:48;50.50;;;12.83;;
4616;SDS011;2321;42.704;23.384;2023-07-29T03:53:15;48.97;;;16.27;;
4616;SDS011;2321;42.704;23.384;2023-07-29T03:55:42;6.87;;;4.60;;
4616;SDS011;2321;42.704;23.384;2023-07-29T03:58:10;5.30;;;4.73;;
4616;SDS011;2321;42.704;23.384;2023-07-29T04:00:38;5.73;;;4.77;;
4616;SDS011;2321;42.704;23.384;2023-07-29T04:03:05;5.93;;;5.10;;
4616;SDS011;2321;42.704;23.384;2023-07-29T04:05:31;18.87;;;6.30;;
4616;SDS011;2321;42.704;23.384;2023-07-29T04:07:58;43.33;;;10.47;;
4616;SDS011;2321;42.704;23.384;2023-07-29T04:10:25;12.50;;;5.70;;
4616;SDS011;2321;42.704;23.384;2023-07-29T04:12:52;7.73;;;4.70;;
4616;SDS011;2321;42.704;23.384;2023-07-29T04:15:21;14.80;;;6.33;;
4616;SDS011;2321;42.704;23.384;2023-07-29T04:17:48;14.47;;;5.83;;
4616;SDS011;2321;42.704;23.384;2023-07-29T04:20:14;20.80;;;6.90;;
4616;SDS011;2321;42.704;23.384;2023-07-29T04:22:41;8.90;;;4.87;;
4616;SDS011;2321;42.704;23.384;2023-07-29T04:25:08;14.27;;;6.67;;
4616;SDS011;2321;42.704;23.384;2023-07-29T04:27:35;11.67;;;5.73;;
4616;SDS011;2321;42.704;23.384;2023-07-29T04:30:02;24.23;;;10.87;;
4616;SDS011;2321;42.704;23.384;2023-07-29T04:32:31;35.67;;;11.60;;
4616;SDS011;2321;42.704;23.384;2023-07-29T04:34:58;59.63;;;14.73;;
4616;SDS011;2321;42.704;23.384;2023-07-29T04:37:24;10.57;;;5.93;;
4616;SDS011;2321;42.704;23.384;2023-07-29T04:39:51;29.37;;;10.27;;
4616;SDS011;2321;42.704;23.384;2023-07-29T04:42:18;5.13;;;3.97;;
4616;SDS011;2321;42.704;23.384;2023-07-29T04:44:45;49.27;;;11.43;;
4616;SDS011;2321;42.704;23.384;2023-07-29T04:47:12;16.90;;;9.03;;
4616;SDS011;2321;42.704;23.384;2023-07-29T04:49:41;20.63;;;6.40;;
4616;SDS011;2321;42.704;23.384;2023-07-29T04:52:08;27.57;;;9.80;;
4616;SDS011;2321;42.704;23.384;2023-07-29T04:54:35;16.47;;;5.93;;
4616;SDS011;2321;42.704;23.384;2023-07-29T04:57:02;12.43;;;6.07;;
4616;SDS011;2321;42.704;23.384;2023-07-29T04:59:29;16.47;;;11.27;;
4616;SDS011;2321;42.704;23.384;2023-07-29T05:01:56;238.23;;;65.40;;
4616;SDS011;2321;42.704;23.384;2023-07-29T05:04:23;960.23;;;375.60;;
4616;SDS011;2321;42.704;23.384;2023-07-29T05:06:51;775.97;;;225.10;;
4616;SDS011;2321;42.704;23.384;2023-07-29T05:09:18;778.93;;;257.53;;
4616;SDS011;2321;42.704;23.384;2023-07-29T05:11:46;29.20;;;15.67;;
4616;SDS011;2321;42.704;23.384;2023-07-29T05:14:14;10.70;;;8.57;;
4616;SDS011;2321;42.704;23.384;2023-07-29T05:16:42;179.53;;;58.33;;
4616;SDS011;2321;42.704;23.384;2023-07-29T05:19:09;152.90;;;41.77;;
4616;SDS011;2321;42.704;23.384;2023-07-29T05:21:37;185.77;;;57.27;;
4616;SDS011;2321;42.704;23.384;2023-07-29T05:24:05;240.97;;;51.03;;
4616;SDS011;2321;42.704;23.384;2023-07-29T05:26:33;237.60;;;51.97;;
4616;SDS011;2321;42.704;23.384;2023-07-29T05:28:59;187.67;;;40.57;;
4616;SDS011;2321;42.704;23.384;2023-07-29T05:31:26;83.53;;;19.27;;
4616;SDS011;2321;42.704;23.384;2023-07-29T05:33:53;107.80;;;24.60;;
4616;SDS011;2321;42.704;23.384;2023-07-29T05:36:20;239.03;;;55.20;;
4616;SDS011;2321;42.704;23.384;2023-07-29T05:38:47;176.43;;;38.20;;
4616;SDS011;2321;42.704;23.384;2023-07-29T05:41:15;88.77;;;19.33;;
4616;SDS011;2321;42.704;23.384;2023-07-29T05:43:42;103.30;;;22.63;;
4616;SDS011;2321;42.704;23.384;2023-07-29T05:46:10;110.53;;;23.50;;
4616;SDS011;2321;42.704;23.384;2023-07-29T05:48:37;73.53;;;16.23;;
4616;SDS011;2321;42.704;23.384;2023-07-29T05:51:04;237.00;;;52.33;;
4616;SDS011;2321;42.704;23.384;2023-07-29T05:53:31;215.00;;;50.47;;
4616;SDS011;2321;42.704;23.384;2023-07-29T05:55:58;220.67;;;54.87;;
4616;SDS011;2321;42.704;23.384;2023-07-29T05:58:26;210.30;;;55.57;;
4616;SDS011;2321;42.704;23.384;2023-07-29T06:00:53;235.50;;;52.60;;
4616;SDS011;2321;42.704;23.384;2023-07-29T06:03:20;231.47;;;51.03;;
4616;SDS011;2321;42.704;23.384;2023-07-29T06:05:48;203.97;;;51.67;;
4616;SDS011;2321;42.704;23.384;2023-07-29T06:08:15;150.10;;;44.00;;
4616;SDS011;2321;42.704;23.384;2023-07-29T06:10:42;61.50;;;15.47;;
4616;SDS011;2321;42.704;23.384;2023-07-29T06:13:08;64.23;;;14.43;;
4616;SDS011;2321;42.704;23.384;2023-07-29T06:15:37;20.83;;;5.87;;
4616;SDS011;2321;42.704;23.384;2023-07-29T06:18:04;57.37;;;17.43;;
4616;SDS011;2321;42.704;23.384;2023-07-29T06:20:30;29.23;;;8.80;;
4616;SDS011;2321;42.704;23.384;2023-07-29T06:22:57;43.13;;;10.63;;
4616;SDS011;2321;42.704;23.384;2023-07-29T06:25:24;30.20;;;9.33;;
4616;SDS011;2321;42.704;23.384;2023-07-29T06:27:51;48.10;;;13.23;;
4616;SDS011;2321;42.704;23.384;2023-07-29T06:30:18;34.37;;;10.80;;
4616;SDS011;2321;42.704;23.384;2023-07-29T06:32:46;48.70;;;15.43;;
4616;SDS011;2321;42.704;23.384;2023-07-29T06:35:15;50.13;;;12.83;;
4616;SDS011;2321;42.704;23.384;2023-07-29T06:37:42;14.93;;;5.90;;
4616;SDS011;2321;42.704;23.384;2023-07-29T06:40:09;18.80;;;7.33;;
4616;SDS011;2321;42.704;23.384;2023-07-29T06:42:37;49.10;;;13.60;;
4616;SDS011;2321;42.704;23.384;2023-07-29T06:45:04;10.93;;;5.10;;
4616;SDS011;2321;42.704;23.384;2023-07-29T06:47:32;27.13;;;8.30;;
4616;SDS011;2321;42.704;23.384;2023-07-29T06:50:03;45.23;;;13.03;;
4616;SDS011;2321;42.704;23.384;2023-07-29T06:52:33;77.80;;;20.07;;
4616;SDS011;2321;42.704;23.384;2023-07-29T06:55:02;48.53;;;13.60;;
4616;SDS011;2321;42.704;23.384;2023-07-29T06:57:29;43.43;;;13.53;;
4616;SDS011;2321;42.704;23.384;2023-07-29T06:59:56;44.20;;;11.90;;
4616;SDS011;2321;42.704;23.384;2023-07-29T07:02:22;39.77;;;13.90;;
4616;SDS011;2321;42.704;23.384;2023-07-29T07:04:49;61.90;;;15.33;;
4616;SDS011;2321;42.704;23.384;2023-07-29T07:07:17;45.63;;;10.37;;
4616;SDS011;2321;42.704;23.384;2023-07-29T07:09:45;30.67;;;8.80;;
4616;SDS011;2321;42.704;23.384;2023-07-29T07:12:14;28.13;;;8.77;;
4616;SDS011;2321;42.704;23.384;2023-07-29T07:14:41;18.03;;;7.83;;
4616;SDS011;2321;42.704;23.384;2023-07-29T07:17:08;44.13;;;11.67;;
4616;SDS011;2321;42.704;23.384;2023-07-29T07:19:35;58.23;;;14.83;;
4616;SDS011;2321;42.704;23.384;2023-07-29T07:22:02;43.70;;;11.57;;
4616;SDS011;2321;42.704;23.384;2023-07-29T07:24:30;52.90;;;13.73;;
4616;SDS011;2321;42.704;23.384;2023-07-29T07:26:57;47.83;;;12.80;;
4616;SDS011;2321;42.704;23.384;2023-07-29T07:29:24;70.73;;;17.50;;
4616;SDS011;2321;42.704;23.384;2023-07-29T07:31:51;54.80;;;13.13;;
4616;SDS011;2321;42.704;23.384;2023-07-29T07:34:19;46.07;;;12.67;;
4616;SDS011;2321;42.704;23.384;2023-07-29T07:36:46;11.60;;;5.77;;
4616;SDS011;2321;42.704;23.384;2023-07-29T07:39:13;9.53;;;4.30;;
4616;SDS011;2321;42.704;23.384;2023-07-29T07:41:41;55.57;;;13.97;;
4616;SDS011;2321;42.704;23.384;2023-07-29T07:44:09;55.93;;;14.43;;
4616;SDS011;2321;42.704;23.384;2023-07-29T07:46:36;28.70;;;9.13;;
4616;SDS011;2321;42.704;23.384;2023-07-29T07:49:04;9.53;;;5.50;;
4616;SDS011;2321;42.704;23.384;2023-07-29T07:51:30;9.03;;;5.53;;
4616;SDS011;2321;42.704;23.384;2023-07-29T07:53:57;10.50;;;4.07;;
4616;SDS011;2321;42.704;23.384;2023-07-29T07:56:24;66.87;;;16.00;;
4616;SDS011;2321;42.704;23.384;2023-07-29T07:58:54;38.20;;;10.17;;
4616;SDS011;2321;42.704;23.384;2023-07-29T08:01:20;18.03;;;5.47;;
4616;SDS011;2321;42.704;23.384;2023-07-29T08:03:47;56.33;;;13.80;;
4616;SDS011;2321;42.704;23.384;2023-07-29T08:06:14;219.67;;;50.63;;
4616;SDS011;2321;42.704;23.384;2023-07-29T08:08:41;85.17;;;19.23;;
4616;SDS011;2321;42.704;23.384;2023-07-29T08:11:08;62.93;;;14.33;;
4616;SDS011;2321;42.704;23.384;2023-07-29T08:13:35;90.63;;;22.13;;
4616;SDS011;2321;42.704;23.384;2023-07-29T08:16:03;172.33;;;37.70;;
4616;SDS011;2321;42.704;23.384;2023-07-29T08:18:30;174.33;;;44.07;;
4616;SDS011;2321;42.704;23.384;2023-07-29T08:20:57;29.47;;;10.50;;
4616;SDS011;2321;42.704;23.384;2023-07-29T08:23:28;9.43;;;5.67;;
4616;SDS011;2321;42.704;23.384;2023-07-29T08:25:56;9.80;;;5.40;;
4616;SDS011;2321;42.704;23.384;2023-07-29T08:28:26;16.73;;;6.63;;
4616;SDS011;2321;42.704;23.384;2023-07-29T08:31:03;17.03;;;5.97;;
4616;SDS011;2321;42.704;23.384;2023-07-29T08:33:30;15.03;;;6.17;;
4616;SDS011;2321;42.704;23.384;2023-07-29T08:35:58;11.80;;;5.10;;
4616;SDS011;2321;42.704;23.384;2023-07-29T08:38:25;12.73;;;5.63;;
4616;SDS011;2321;42.704;23.384;2023-07-29T08:40:53;17.63;;;7.43;;
4616;SDS011;2321;42.704;23.384;2023-07-29T08:43:28;19.83;;;6.60;;
4616;SDS011;2321;42.704;23.384;2023-07-29T08:45:57;7.93;;;4.57;;
4616;SDS011;2321;42.704;23.384;2023-07-29T08:48:28;12.23;;;5.37;;
4616;SDS011;2321;42.704;23.384;2023-07-29T08:51:01;10.90;;;5.33;;
4616;SDS011;2321;42.704;23.384;2023-07-29T08:53:30;12.33;;;6.50;;
4616;SDS011;2321;42.704;23.384;2023-07-29T08:55:58;12.10;;;6.47;;
4616;SDS011;2321;42.704;23.384;2023-07-29T08:58:25;14.87;;;7.07;;
4616;SDS011;2321;42.704;23.384;2023-07-29T09:00:52;11.97;;;5.93;;
4616;SDS011;2321;42.704;23.384;2023-07-29T09:03:19;12.27;;;5.40;;
4616;SDS011;2321;42.704;23.384;2023-07-29T09:05:48;10.77;;;5.30;;
4616;SDS011;2321;42.704;23.384;2023-07-29T09:08:16;15.60;;;5.83;;
4616;SDS011;2321;42.704;23.384;2023-07-29T09:10:44;10.40;;;5.57;;
4616;SDS011;2321;42.704;23.384;2023-07-29T09:13:11;9.37;;;5.33;;
4616;SDS011;2321;42.704;23.384;2023-07-29T09:15:38;17.83;;;6.23;;
4616;SDS011;2321;42.704;23.384;2023-07-29T09:18:10;12.87;;;6.57;;
4616;SDS011;2321;42.704;23.384;2023-07-29T09:20:37;12.30;;;6.93;;
4616;SDS011;2321;42.704;23.384;2023-07-29T09:23:08;23.50;;;9.13;;
4616;SDS011;2321;42.704;23.384;2023-07-29T09:25:36;129.73;;;28.27;;
4616;SDS011;2321;42.704;23.384;2023-07-29T09:28:07;67.83;;;16.27;;
4616;SDS011;2321;42.704;23.384;2023-07-29T09:30:35;82.27;;;21.07;;
4616;SDS011;2321;42.704;23.384;2023-07-29T09:33:03;82.43;;;18.93;;
4616;SDS011;2321;42.704;23.384;2023-07-29T09:35:31;41.07;;;8.80;;
4616;SDS011;2321;42.704;23.384;2023-07-29T09:38:00;21.83;;;6.83;;
4616;SDS011;2321;42.704;23.384;2023-07-29T09:40:28;9.93;;;4.73;;
4616;SDS011;2321;42.704;23.384;2023-07-29T09:43:01;8.77;;;5.43;;
4616;SDS011;2321;42.704;23.384;2023-07-29T09:45:29;10.30;;;4.70;;
4616;SDS011;2321;42.704;23.384;2023-07-29T09:47:56;11.53;;;4.30;;
4616;SDS011;2321;42.704;23.384;2023-07-29T09:50:24;7.20;;;3.97;;
4616;SDS011;2321;42.704;23.384;2023-07-29T09:52:51;13.57;;;5.23;;
4616;SDS011;2321;42.704;23.384;2023-07-29T09:55:19;6.57;;;4.80;;
4616;SDS011;2321;42.704;23.384;2023-07-29T09:57:48;15.00;;;5.53;;
4616;SDS011;2321;42.704;23.384;2023-07-29T10:00:19;6.07;;;4.17;;
4616;SDS011;2321;42.704;23.384;2023-07-29T10:02:47;13.50;;;6.20;;
4616;SDS011;2321;42.704;23.384;2023-07-29T10:05:15;19.93;;;7.83;;
4616;SDS011;2321;42.704;23.384;2023-07-29T10:07:42;189.00;;;42.83;;
4616;SDS011;2321;42.704;23.384;2023-07-29T10:10:09;70.47;;;16.97;;
4616;SDS011;2321;42.704;23.384;2023-07-29T10:12:39;214.37;;;54.20;;
4616;SDS011;2321;42.704;23.384;2023-07-29T10:15:09;200.37;;;49.20;;
4616;SDS011;2321;42.704;23.384;2023-07-29T10:17:37;200.43;;;45.47;;
4616;SDS011;2321;42.704;23.384;2023-07-29T10:20:05;179.70;;;44.27;;
4616;SDS011;2321;42.704;23.384;2023-07-29T10:22:35;167.30;;;39.07;;
4616;SDS011;2321;42.704;23.384;2023-07-29T10:25:03;190.90;;;46.60;;
4616;SDS011;2321;42.704;23.384;2023-07-29T10:27:35;179.83;;;45.83;;
4616;SDS011;2321;42.704;23.384;2023-07-29T10:30:09;169.83;;;45.00;;
4616;SDS011;2321;42.704;23.384;2023-07-29T10:32:37;189.30;;;46.63;;
4616;SDS011;2321;42.704;23.384;2023-07-29T10:35:05;160.80;;;42.40;;
4616;SDS011;2321;42.704;23.384;2023-07-29T10:37:33;159.00;;;43.83;;
4616;SDS011;2321;42.704;23.384;2023-07-29T10:39:59;186.13;;;45.67;;
4616;SDS011;2321;42.704;23.384;2023-07-29T10:42:27;155.23;;;42.33;;
4616;SDS011;2321;42.704;23.384;2023-07-29T10:44:53;148.37;;;42.97;;
4616;SDS011;2321;42.704;23.384;2023-07-29T10:47:23;171.33;;;51.00;;
4616;SDS011;2321;42.704;23.384;2023-07-29T10:49:51;179.33;;;54.77;;
4616;SDS011;2321;42.704;23.384;2023-07-29T10:55:25;192.90;;;45.83;;
4616;SDS011;2321;42.704;23.384;2023-07-29T10:58:04;176.30;;;46.07;;
4616;SDS011;2321;42.704;23.384;2023-07-29T11:00:31;183.07;;;45.17;;
4616;SDS011;2321;42.704;23.384;2023-07-29T11:03:00;180.67;;;46.10;;
4616;SDS011;2321;42.704;23.384;2023-07-29T11:05:41;159.17;;;41.93;;
4616;SDS011;2321;42.704;23.384;2023-07-29T11:08:16;159.27;;;42.70;;
4616;SDS011;2321;42.704;23.384;2023-07-29T11:10:44;172.50;;;44.53;;
4616;SDS011;2321;42.704;23.384;2023-07-29T11:13:23;173.73;;;45.40;;
4616;SDS011;2321;42.704;23.384;2023-07-29T11:15:53;52.60;;;14.97;;
4616;SDS011;2321;42.704;23.384;2023-07-29T11:18:22;10.13;;;4.73;;
4616;SDS011;2321;42.704;23.384;2023-07-29T11:20:53;10.10;;;5.03;;
4616;SDS011;2321;42.704;23.384;2023-07-29T11:23:20;156.97;;;36.70;;
4616;SDS011;2321;42.704;23.384;2023-07-29T11:25:54;176.50;;;43.40;;
4616;SDS011;2321;42.704;23.384;2023-07-29T11:28:21;192.77;;;45.60;;
4616;SDS011;2321;42.704;23.384;2023-07-29T11:30:49;170.37;;;42.43;;
4616;SDS011;2321;42.704;23.384;2023-07-29T11:33:17;182.23;;;46.77;;
4616;SDS011;2321;42.704;23.384;2023-07-29T11:35:46;172.90;;;45.57;;
4616;SDS011;2321;42.704;23.384;2023-07-29T11:38:14;68.93;;;18.83;;
4616;SDS011;2321;42.704;23.384;2023-07-29T11:40:41;55.93;;;13.43;;
4616;SDS011;2321;42.704;23.384;2023-07-29T11:43:08;199.33;;;45.93;;
4616;SDS011;2321;42.704;23.384;2023-07-29T11:45:35;30.17;;;9.50;;
4616;SDS011;2321;42.704;23.384;2023-07-29T11:48:03;201.70;;;48.97;;
4616;SDS011;2321;42.704;23.384;2023-07-29T11:50:30;177.33;;;45.87;;
4616;SDS011;2321;42.704;23.384;2023-07-29T11:52:59;185.97;;;44.20;;
4616;SDS011;2321;42.704;23.384;2023-07-29T11:55:26;213.57;;;50.50;;
4616;SDS011;2321;42.704;23.384;2023-07-29T11:57:53;190.50;;;44.90;;
4616;SDS011;2321;42.704;23.384;2023-07-29T12:00:20;193.57;;;48.40;;
4616;SDS011;2321;42.704;23.384;2023-07-29T12:02:47;181.73;;;46.17;;
4616;SDS011;2321;42.704;23.384;2023-07-29T12:05:16;174.23;;;46.27;;
4616;SDS011;2321;42.704;23.384;2023-07-29T12:07:46;165.03;;;44.33;;
4616;SDS011;2321;42.704;23.384;2023-07-29T12:10:15;164.23;;;42.43;;
4616;SDS011;2321;42.704;23.384;2023-07-29T12:12:45;149.07;;;42.40;;
4616;SDS011;2321;42.704;23.384;2023-07-29T12:15:13;165.77;;;43.93;;
4616;SDS011;2321;42.704;23.384;2023-07-29T12:17:48;196.17;;;46.57;;
4616;SDS011;2321;42.704;23.384;2023-07-29T12:20:15;191.83;;;44.07;;
4616;SDS011;2321;42.704;23.384;2023-07-29T12:22:50;202.90;;;48.60;;
4616;SDS011;2321;42.704;23.384;2023-07-29T12:25:20;201.07;;;47.80;;
4616;SDS011;2321;42.704;23.384;2023-07-29T12:27:47;101.10;;;22.53;;
4616;SDS011;2321;42.704;23.384;2023-07-29T12:30:14;50.67;;;12.70;;
4616;SDS011;2321;42.704;23.384;2023-07-29T12:32:44;61.87;;;15.53;;
4616;SDS011;2321;42.704;23.384;2023-07-29T12:35:11;30.53;;;8.73;;
4616;SDS011;2321;42.704;23.384;2023-07-29T12:37:38;7.20;;;3.80;;
4616;SDS011;2321;42.704;23.384;2023-07-29T12:40:08;55.63;;;15.30;;
4616;SDS011;2321;42.704;23.384;2023-07-29T12:42:48;6.77;;;3.53;;
4616;SDS011;2321;42.704;23.384;2023-07-29T12:45:16;7.63;;;4.20;;
4616;SDS011;2321;42.704;23.384;2023-07-29T12:47:43;21.33;;;7.93;;
4616;SDS011;2321;42.704;23.384;2023-07-29T12:50:10;19.80;;;6.70;;
4616;SDS011;2321;42.704;23.384;2023-07-29T12:52:37;43.40;;;10.47;;
4616;SDS011;2321;42.704;23.384;2023-07-29T12:55:04;59.10;;;14.50;;
4616;SDS011;2321;42.704;23.384;2023-07-29T12:57:33;8.80;;;5.03;;
4616;SDS011;2321;42.704;23.384;2023-07-29T13:00:02;10.30;;;4.50;;
4616;SDS011;2321;42.704;23.384;2023-07-29T13:02:30;14.10;;;5.60;;
4616;SDS011;2321;42.704;23.384;2023-07-29T13:04:57;11.50;;;4.13;;
4616;SDS011;2321;42.704;23.384;2023-07-29T13:07:24;10.47;;;4.23;;
4616;SDS011;2321;42.704;23.384;2023-07-29T13:09:51;9.33;;;4.23;;
4616;SDS011;2321;42.704;23.384;2023-07-29T13:12:18;8.47;;;4.33;;
4616;SDS011;2321;42.704;23.384;2023-07-29T13:14:45;7.10;;;4.10;;
4616;SDS011;2321;42.704;23.384;2023-07-29T13:17:13;9.43;;;4.07;;
4616;SDS011;2321;42.704;23.384;2023-07-29T13:19:40;7.47;;;3.80;;
4616;SDS011;2321;42.704;23.384;2023-07-29T13:22:07;12.27;;;5.23;;
4616;SDS011;2321;42.704;23.384;2023-07-29T13:24:34;18.47;;;6.93;;
4616;SDS011;2321;42.704;23.384;2023-07-29T13:27:00;19.40;;;6.10;;
4616;SDS011;2321;42.704;23.384;2023-07-29T13:29:27;188.43;;;43.47;;
4616;SDS011;2321;42.704;23.384;2023-07-29T13:31:54;74.77;;;17.10;;
4616;SDS011;2321;42.704;23.384;2023-07-29T13:34:22;204.33;;;51.10;;
4616;SDS011;2321;42.704;23.384;2023-07-29T13:36:50;172.27;;;41.73;;
4616;SDS011;2321;42.704;23.384;2023-07-29T13:39:17;187.37;;;45.90;;
4616;SDS011;2321;42.704;23.384;2023-07-29T13:41:43;166.97;;;44.23;;
4616;SDS011;2321;42.704;23.384;2023-07-29T13:44:10;187.23;;;48.53;;
4616;SDS011;2321;42.704;23.384;2023-07-29T13:46:37;201.73;;;49.77;;
4616;SDS011;2321;42.704;23.384;2023-07-29T13:49:04;196.80;;;45.47;;
4616;SDS011;2321;42.704;23.384;2023-07-29T13:51:32;189.30;;;46.20;;
4616;SDS011;2321;42.704;23.384;2023-07-29T13:53:59;61.97;;;16.27;;
4616;SDS011;2321;42.704;23.384;2023-07-29T13:56:26;8.83;;;4.83;;
4616;SDS011;2321;42.704;23.384;2023-07-29T13:58:53;13.43;;;5.30;;
4616;SDS011;2321;42.704;23.384;2023-07-29T14:01:20;12.67;;;6.37;;
4616;SDS011;2321;42.704;23.384;2023-07-29T14:03:46;10.47;;;5.33;;
4616;SDS011;2321;42.704;23.384;2023-07-29T14:06:13;9.60;;;4.60;;
4616;SDS011;2321;42.704;23.384;2023-07-29T14:08:42;8.13;;;4.23;;
4616;SDS011;2321;42.704;23.384;2023-07-29T14:11:09;8.13;;;4.20;;
4616;SDS011;2321;42.704;23.384;2023-07-29T14:13:35;11.90;;;5.03;;
4616;SDS011;2321;42.704;23.384;2023-07-29T14:16:02;55.13;;;14.67;;
4616;SDS011;2321;42.704;23.384;2023-07-29T14:18:30;76.30;;;19.43;;
4616;SDS011;2321;42.704;23.384;2023-07-29T14:20:57;20.33;;;7.57;;
4616;SDS011;2321;42.704;23.384;2023-07-29T14:23:24;12.50;;;5.20;;
4616;SDS011;2321;42.704;23.384;2023-07-29T14:25:52;10.77;;;5.07;;
4616;SDS011;2321;42.704;23.384;2023-07-29T14:28:19;9.80;;;4.53;;
4616;SDS011;2321;42.704;23.384;2023-07-29T14:30:46;7.63;;;3.83;;
4616;SDS011;2321;42.704;23.384;2023-07-29T14:33:13;43.23;;;12.47;;
4616;SDS011;2321;42.704;23.384;2023-07-29T14:35:40;10.50;;;4.33;;
4616;SDS011;2321;42.704;23.384;2023-07-29T14:38:06;158.43;;;44.57;;
4616;SDS011;2321;42.704;23.384;2023-07-29T14:40:33;124.27;;;41.73;;